< Cyclone 195913 1960 Season Cyclone 196002 >
Cyclone 196001 (unnamed)
General InformationTrack Information on Google Maps || ResourceGoogle EarthGE AnimationAtom FeedGeoJSON
Detalied Best Track (Time Zone = UTC)
Year Month Day Hour Lat. Long. Pressure (hPa) Wind (kt) Class Image Chart
1959 12 19 23 -5.9 156.5 999 0 0 -- --
1959 12 20 11 -6.9 156.3 999 0 0 -- --
1959 12 20 17 -7.2 156.0 999 0 0 -- --
1959 12 20 23 -7.6 155.7 999 0 0 -- --
1959 12 21 05 -8.2 155.5 997 0 0 -- --
1959 12 21 11 -8.5 155.4 997 0 0 -- --
1959 12 21 23 -9.1 155.7 996 0 0 -- --
1959 12 22 11 -9.9 156.3 995 0 0 -- --
1959 12 22 23 -10.9 157.0 994 0 0 -- --
1959 12 23 05 -11.4 157.5 992 0 0 -- --
1959 12 23 11 -11.8 158.1 992 0 0 -- --
1959 12 23 23 -12.6 159.3 992 0 0 -- --
1959 12 24 11 -13.1 160.3 990 0 0 -- --
1959 12 24 23 -13.7 161.2 990 0 0 -- --
1959 12 25 11 -13.9 161.9 990 0 0 -- --
1959 12 25 23 -14.6 162.6 990 0 0 -- --
1959 12 26 11 -15.2 163.2 990 0 0 -- --
1959 12 26 23 -16.2 163.9 990 0 0 -- --
1959 12 27 11 -17.2 164.3 990 0 0 -- --
1959 12 27 23 -18.1 165.3 988 0 0 -- --
< Cyclone 195913 1960 Season Cyclone 196002 >

Help